Portada
METAR-TAF:

METAR-TAF

Aeropuertos :

Tarvisio, Italia

latitud: 46-30N, longitud: 013-35E, altitud: 777 m

Observación

El informe se hizo hace 10 horas y 1 minutos, a las 17:55 UTC
Viento calma
Temperatura 7°C
Humedad 81%
Presión 1017 hPa
Visibilidad: 8000 m
Cielo nuboso a una altura de 3200 ft

METAR: LIVO 241755Z 00000KT 8000 BKN032 07/04 Q1017 RMK BKN VIS MIN 8000

Hora: 04:56 (03:56 UTC)


TAF: falta

Observaciones y pronósticos meteorológicos de más de 4000 aeropuertos (mensajes METAR y TAF).

Los puntos amarillos y rojos representan las estaciones disponibles.

Ponga el ratón en el punto deseado para ver el nombre de la estación.

Haga clic para ver las observaciones y los pronósticos meteorológicos.

Para cambiar el mapa : haga clic en los botones verdes con una cruz de color negro para hacer un zoom, en el botón verde con un guión para alejar o en las flechas verdes para mapas adyacentes.


METAR-TAF: